sensor_id;sensor_type;location;lat;lon;timestamp;temperature;humidity
41262;DHT22;29629;52.532;13.352;2023-05-10T00:02:00;13.30;99.90
41262;DHT22;29629;52.532;13.352;2023-05-10T00:04:27;13.30;99.90
41262;DHT22;29629;52.532;13.352;2023-05-10T00:06:54;13.20;99.90
41262;DHT22;29629;52.532;13.352;2023-05-10T00:09:21;13.20;99.90
41262;DHT22;29629;52.532;13.352;2023-05-10T00:11:48;13.20;99.90
41262;DHT22;29629;52.532;13.352;2023-05-10T00:14:16;13.20;99.90
41262;DHT22;29629;52.532;13.352;2023-05-10T00:16:43;13.20;99.90
41262;DHT22;29629;52.532;13.352;2023-05-10T00:19:10;13.20;99.90
41262;DHT22;29629;52.532;13.352;2023-05-10T00:21:37;13.10;99.90
41262;DHT22;29629;52.532;13.352;2023-05-10T00:24:05;13.10;99.90
41262;DHT22;29629;52.532;13.352;2023-05-10T00:26:32;13.10;99.90
41262;DHT22;29629;52.532;13.352;2023-05-10T00:28:58;13.10;99.90
41262;DHT22;29629;52.532;13.352;2023-05-10T00:31:27;13.10;99.90
41262;DHT22;29629;52.532;13.352;2023-05-10T00:33:55;13.10;99.90
41262;DHT22;29629;52.532;13.352;2023-05-10T00:36:22;13.10;99.90
41262;DHT22;29629;52.532;13.352;2023-05-10T00:38:49;13.10;99.90
41262;DHT22;29629;52.532;13.352;2023-05-10T00:41:16;13.00;99.90
41262;DHT22;29629;52.532;13.352;2023-05-10T00:43:43;13.00;99.90
41262;DHT22;29629;52.532;13.352;2023-05-10T00:46:10;12.90;99.90
41262;DHT22;29629;52.532;13.352;2023-05-10T00:48:39;12.90;99.90
41262;DHT22;29629;52.532;13.352;2023-05-10T00:51:06;12.80;99.90
41262;DHT22;29629;52.532;13.352;2023-05-10T00:53:34;12.80;99.90
41262;DHT22;29629;52.532;13.352;2023-05-10T00:56:01;12.80;99.90
41262;DHT22;29629;52.532;13.352;2023-05-10T00:58:28;12.70;99.90
41262;DHT22;29629;52.532;13.352;2023-05-10T01:00:56;12.70;99.90
41262;DHT22;29629;52.532;13.352;2023-05-10T01:03:25;12.70;99.90
41262;DHT22;29629;52.532;13.352;2023-05-10T01:05:53;12.60;99.90
41262;DHT22;29629;52.532;13.352;2023-05-10T01:08:20;12.60;99.90
41262;DHT22;29629;52.532;13.352;2023-05-10T01:10:47;12.50;99.90
41262;DHT22;29629;52.532;13.352;2023-05-10T01:13:22;12.50;99.90
41262;DHT22;29629;52.532;13.352;2023-05-10T01:15:51;12.50;99.90
41262;DHT22;29629;52.532;13.352;2023-05-10T01:18:20;12.40;99.90
41262;DHT22;29629;52.532;13.352;2023-05-10T01:21:01;12.40;99.90
41262;DHT22;29629;52.532;13.352;2023-05-10T01:23:53;12.30;99.90
41262;DHT22;29629;52.532;13.352;2023-05-10T01:27:02;12.30;99.90
41262;DHT22;29629;52.532;13.352;2023-05-10T01:29:51;12.30;99.90
41262;DHT22;29629;52.532;13.352;2023-05-10T01:32:26;12.20;99.90
41262;DHT22;29629;52.532;13.352;2023-05-10T01:35:00;12.20;99.90
41262;DHT22;29629;52.532;13.352;2023-05-10T01:37:33;12.20;99.90
41262;DHT22;29629;52.532;13.352;2023-05-10T01:40:08;12.20;99.90
41262;DHT22;29629;52.532;13.352;2023-05-10T01:42:42;12.10;99.90
41262;DHT22;29629;52.532;13.352;2023-05-10T01:45:14;12.10;99.90
41262;DHT22;29629;52.532;13.352;2023-05-10T01:47:48;12.00;99.90
41262;DHT22;29629;52.532;13.352;2023-05-10T01:50:19;12.00;99.90
41262;DHT22;29629;52.532;13.352;2023-05-10T01:52:51;11.90;99.90
41262;DHT22;29629;52.532;13.352;2023-05-10T01:55:20;11.90;99.90
41262;DHT22;29629;52.532;13.352;2023-05-10T01:57:53;11.90;99.90
41262;DHT22;29629;52.532;13.352;2023-05-10T02:00:23;11.80;99.90
41262;DHT22;29629;52.532;13.352;2023-05-10T02:02:52;11.80;99.90
41262;DHT22;29629;52.532;13.352;2023-05-10T02:05:21;11.80;99.90
41262;DHT22;29629;52.532;13.352;2023-05-10T02:07:49;11.70;99.90
41262;DHT22;29629;52.532;13.352;2023-05-10T02:10:17;11.70;99.90
41262;DHT22;29629;52.532;13.352;2023-05-10T02:12:47;11.70;99.90
41262;DHT22;29629;52.532;13.352;2023-05-10T02:15:20;11.70;99.90
41262;DHT22;29629;52.532;13.352;2023-05-10T02:17:47;11.70;99.90
41262;DHT22;29629;52.532;13.352;2023-05-10T02:20:18;11.60;99.90
41262;DHT22;29629;52.532;13.352;2023-05-10T02:22:48;11.60;99.90
41262;DHT22;29629;52.532;13.352;2023-05-10T02:25:16;11.60;99.90
41262;DHT22;29629;52.532;13.352;2023-05-10T02:27:44;11.60;99.90
41262;DHT22;29629;52.532;13.352;2023-05-10T02:30:13;11.50;99.90
41262;DHT22;29629;52.532;13.352;2023-05-10T02:32:41;11.50;99.90
41262;DHT22;29629;52.532;13.352;2023-05-10T02:35:08;11.50;99.90
41262;DHT22;29629;52.532;13.352;2023-05-10T02:37:38;11.50;99.90
41262;DHT22;29629;52.532;13.352;2023-05-10T02:40:07;11.50;99.90
41262;DHT22;29629;52.532;13.352;2023-05-10T02:42:37;11.50;99.90
41262;DHT22;29629;52.532;13.352;2023-05-10T02:45:10;11.50;99.90
41262;DHT22;29629;52.532;13.352;2023-05-10T02:47:38;11.40;99.90
41262;DHT22;29629;52.532;13.352;2023-05-10T02:50:06;11.40;99.90
41262;DHT22;29629;52.532;13.352;2023-05-10T02:52:42;11.40;99.90
41262;DHT22;29629;52.532;13.352;2023-05-10T02:55:12;11.40;99.90
41262;DHT22;29629;52.532;13.352;2023-05-10T02:57:43;11.40;99.90
41262;DHT22;29629;52.532;13.352;2023-05-10T03:00:12;11.30;99.90
41262;DHT22;29629;52.532;13.352;2023-05-10T03:02:39;11.30;99.90
41262;DHT22;29629;52.532;13.352;2023-05-10T03:05:06;11.30;99.90
41262;DHT22;29629;52.532;13.352;2023-05-10T03:07:33;11.30;99.90
41262;DHT22;29629;52.532;13.352;2023-05-10T03:10:02;11.20;99.90
41262;DHT22;29629;52.532;13.352;2023-05-10T03:12:38;11.20;99.90
41262;DHT22;29629;52.532;13.352;2023-05-10T03:15:13;11.20;99.90
41262;DHT22;29629;52.532;13.352;2023-05-10T03:17:47;11.10;99.90
41262;DHT22;29629;52.532;13.352;2023-05-10T03:20:21;11.10;99.90
41262;DHT22;29629;52.532;13.352;2023-05-10T03:22:52;11.10;99.90
41262;DHT22;29629;52.532;13.352;2023-05-10T03:25:21;11.10;99.90
41262;DHT22;29629;52.532;13.352;2023-05-10T03:27:49;11.10;99.90
41262;DHT22;29629;52.532;13.352;2023-05-10T03:30:17;11.00;99.90
41262;DHT22;29629;52.532;13.352;2023-05-10T03:32:44;11.00;99.90
41262;DHT22;29629;52.532;13.352;2023-05-10T03:35:12;11.00;99.90
41262;DHT22;29629;52.532;13.352;2023-05-10T03:37:40;11.00;99.90
41262;DHT22;29629;52.532;13.352;2023-05-10T03:40:08;11.00;99.90
41262;DHT22;29629;52.532;13.352;2023-05-10T03:42:36;11.00;99.90
41262;DHT22;29629;52.532;13.352;2023-05-10T03:45:04;11.00;99.90
41262;DHT22;29629;52.532;13.352;2023-05-10T03:47:31;11.00;99.90
41262;DHT22;29629;52.532;13.352;2023-05-10T03:49:58;11.00;99.90
41262;DHT22;29629;52.532;13.352;2023-05-10T03:52:25;11.00;99.90
41262;DHT22;29629;52.532;13.352;2023-05-10T03:54:52;11.00;99.90
41262;DHT22;29629;52.532;13.352;2023-05-10T03:57:19;11.00;99.90
41262;DHT22;29629;52.532;13.352;2023-05-10T03:59:47;11.00;99.90
41262;DHT22;29629;52.532;13.352;2023-05-10T04:02:14;11.00;99.90
41262;DHT22;29629;52.532;13.352;2023-05-10T04:04:41;11.00;99.90
41262;DHT22;29629;52.532;13.352;2023-05-10T04:07:08;11.00;99.90
41262;DHT22;29629;52.532;13.352;2023-05-10T04:09:35;11.20;99.90
41262;DHT22;29629;52.532;13.352;2023-05-10T04:12:03;11.10;99.90
41262;DHT22;29629;52.532;13.352;2023-05-10T04:14:30;11.20;99.90
41262;DHT22;29629;52.532;13.352;2023-05-10T04:16:58;11.30;99.90
41262;DHT22;29629;52.532;13.352;2023-05-10T04:19:29;11.30;99.90
41262;DHT22;29629;52.532;13.352;2023-05-10T04:21:56;11.40;99.90
41262;DHT22;29629;52.532;13.352;2023-05-10T04:24:23;11.50;99.90
41262;DHT22;29629;52.532;13.352;2023-05-10T04:26:50;11.60;99.90
41262;DHT22;29629;52.532;13.352;2023-05-10T04:29:18;11.60;99.90
41262;DHT22;29629;52.532;13.352;2023-05-10T04:31:44;11.60;99.90
41262;DHT22;29629;52.532;13.352;2023-05-10T04:34:13;11.70;99.90
41262;DHT22;29629;52.532;13.352;2023-05-10T04:36:40;11.70;99.90
41262;DHT22;29629;52.532;13.352;2023-05-10T04:39:07;11.80;99.90
41262;DHT22;29629;52.532;13.352;2023-05-10T04:41:35;11.90;99.90
41262;DHT22;29629;52.532;13.352;2023-05-10T04:44:04;12.00;99.90
41262;DHT22;29629;52.532;13.352;2023-05-10T04:46:31;12.00;99.90
41262;DHT22;29629;52.532;13.352;2023-05-10T04:48:58;12.00;99.90
41262;DHT22;29629;52.532;13.352;2023-05-10T04:51:26;12.00;99.90
41262;DHT22;29629;52.532;13.352;2023-05-10T04:53:53;12.10;99.90
41262;DHT22;29629;52.532;13.352;2023-05-10T04:56:20;12.10;99.90
41262;DHT22;29629;52.532;13.352;2023-05-10T04:58:47;12.20;99.90
41262;DHT22;29629;52.532;13.352;2023-05-10T05:01:15;12.20;99.90
41262;DHT22;29629;52.532;13.352;2023-05-10T05:03:41;12.30;99.90
41262;DHT22;29629;52.532;13.352;2023-05-10T05:06:09;12.20;99.90
41262;DHT22;29629;52.532;13.352;2023-05-10T05:08:37;12.30;99.90
41262;DHT22;29629;52.532;13.352;2023-05-10T05:11:04;12.30;99.90
41262;DHT22;29629;52.532;13.352;2023-05-10T05:13:31;12.40;99.90
41262;DHT22;29629;52.532;13.352;2023-05-10T05:16:00;12.50;99.90
41262;DHT22;29629;52.532;13.352;2023-05-10T05:18:28;12.50;99.90
41262;DHT22;29629;52.532;13.352;2023-05-10T05:20:55;12.60;99.90
41262;DHT22;29629;52.532;13.352;2023-05-10T05:23:21;12.70;99.90
41262;DHT22;29629;52.532;13.352;2023-05-10T05:25:52;12.70;99.90
41262;DHT22;29629;52.532;13.352;2023-05-10T05:28:19;12.80;99.90
41262;DHT22;29629;52.532;13.352;2023-05-10T05:30:46;13.00;99.90
41262;DHT22;29629;52.532;13.352;2023-05-10T05:33:14;13.00;99.90
41262;DHT22;29629;52.532;13.352;2023-05-10T05:35:41;13.00;99.90
41262;DHT22;29629;52.532;13.352;2023-05-10T05:38:13;13.20;99.90
41262;DHT22;29629;52.532;13.352;2023-05-10T05:40:40;13.20;99.90
41262;DHT22;29629;52.532;13.352;2023-05-10T05:43:08;13.30;99.90
41262;DHT22;29629;52.532;13.352;2023-05-10T05:45:35;13.40;99.90
41262;DHT22;29629;52.532;13.352;2023-05-10T05:48:02;13.40;99.90
41262;DHT22;29629;52.532;13.352;2023-05-10T05:50:29;13.40;99.90
41262;DHT22;29629;52.532;13.352;2023-05-10T05:52:56;13.60;99.90
41262;DHT22;29629;52.532;13.352;2023-05-10T05:55:23;13.60;99.90
41262;DHT22;29629;52.532;13.352;2023-05-10T05:57:51;13.70;99.90
41262;DHT22;29629;52.532;13.352;2023-05-10T06:00:19;13.80;99.90
41262;DHT22;29629;52.532;13.352;2023-05-10T06:02:46;13.80;99.90
41262;DHT22;29629;52.532;13.352;2023-05-10T06:05:14;13.90;99.90
41262;DHT22;29629;52.532;13.352;2023-05-10T06:07:41;14.00;99.90
41262;DHT22;29629;52.532;13.352;2023-05-10T06:10:08;14.10;99.90
41262;DHT22;29629;52.532;13.352;2023-05-10T06:12:35;14.20;99.90
41262;DHT22;29629;52.532;13.352;2023-05-10T06:15:03;14.30;99.90
41262;DHT22;29629;52.532;13.352;2023-05-10T06:17:31;14.30;99.90
41262;DHT22;29629;52.532;13.352;2023-05-10T06:19:58;14.30;99.90
41262;DHT22;29629;52.532;13.352;2023-05-10T06:22:25;14.50;99.90
41262;DHT22;29629;52.532;13.352;2023-05-10T06:24:52;14.50;99.90
41262;DHT22;29629;52.532;13.352;2023-05-10T06:27:19;14.50;99.90
41262;DHT22;29629;52.532;13.352;2023-05-10T06:29:46;14.60;99.90
41262;DHT22;29629;52.532;13.352;2023-05-10T06:32:13;14.60;99.90
41262;DHT22;29629;52.532;13.352;2023-05-10T06:34:41;14.60;99.90
41262;DHT22;29629;52.532;13.352;2023-05-10T06:37:09;14.80;99.90
41262;DHT22;29629;52.532;13.352;2023-05-10T06:39:36;14.90;99.90
41262;DHT22;29629;52.532;13.352;2023-05-10T06:42:03;15.00;99.90
41262;DHT22;29629;52.532;13.352;2023-05-10T06:44:30;15.10;99.90
41262;DHT22;29629;52.532;13.352;2023-05-10T06:46:57;15.20;99.90
41262;DHT22;29629;52.532;13.352;2023-05-10T06:49:24;15.20;99.90
41262;DHT22;29629;52.532;13.352;2023-05-10T06:51:52;15.30;99.90
41262;DHT22;29629;52.532;13.352;2023-05-10T06:54:20;15.50;99.90
41262;DHT22;29629;52.532;13.352;2023-05-10T06:56:48;15.50;99.90
41262;DHT22;29629;52.532;13.352;2023-05-10T06:59:15;15.60;99.90
41262;DHT22;29629;52.532;13.352;2023-05-10T07:01:44;15.80;99.90
41262;DHT22;29629;52.532;13.352;2023-05-10T07:04:11;15.70;99.90
41262;DHT22;29629;52.532;13.352;2023-05-10T07:06:39;15.80;99.90
41262;DHT22;29629;52.532;13.352;2023-05-10T07:09:07;15.90;99.90
41262;DHT22;29629;52.532;13.352;2023-05-10T07:11:34;16.00;99.90
41262;DHT22;29629;52.532;13.352;2023-05-10T07:14:02;16.20;99.90
41262;DHT22;29629;52.532;13.352;2023-05-10T07:16:29;16.40;99.90
41262;DHT22;29629;52.532;13.352;2023-05-10T07:18:56;16.40;99.90
41262;DHT22;29629;52.532;13.352;2023-05-10T07:21:23;16.50;99.90
41262;DHT22;29629;52.532;13.352;2023-05-10T07:23:54;16.40;99.90
41262;DHT22;29629;52.532;13.352;2023-05-10T07:26:22;16.70;99.90
41262;DHT22;29629;52.532;13.352;2023-05-10T07:28:49;16.90;99.90
41262;DHT22;29629;52.532;13.352;2023-05-10T07:31:16;16.70;99.90
41262;DHT22;29629;52.532;13.352;2023-05-10T07:33:43;16.80;99.90
41262;DHT22;29629;52.532;13.352;2023-05-10T07:36:10;17.00;99.90
41262;DHT22;29629;52.532;13.352;2023-05-10T07:38:37;17.10;99.90
41262;DHT22;29629;52.532;13.352;2023-05-10T07:41:05;17.20;99.90
41262;DHT22;29629;52.532;13.352;2023-05-10T07:43:33;17.30;99.90
41262;DHT22;29629;52.532;13.352;2023-05-10T07:46:00;17.40;99.90
41262;DHT22;29629;52.532;13.352;2023-05-10T07:48:27;17.60;99.90
41262;DHT22;29629;52.532;13.352;2023-05-10T07:50:54;17.80;99.90
41262;DHT22;29629;52.532;13.352;2023-05-10T07:53:21;17.70;99.90
41262;DHT22;29629;52.532;13.352;2023-05-10T07:55:50;17.90;99.90
41262;DHT22;29629;52.532;13.352;2023-05-10T07:58:17;17.90;99.90
41262;DHT22;29629;52.532;13.352;2023-05-10T08:00:45;17.80;99.90
41262;DHT22;29629;52.532;13.352;2023-05-10T08:03:14;17.80;99.90
41262;DHT22;29629;52.532;13.352;2023-05-10T08:05:41;18.10;99.90
41262;DHT22;29629;52.532;13.352;2023-05-10T08:08:08;18.20;99.90
41262;DHT22;29629;52.532;13.352;2023-05-10T08:10:35;18.50;99.90
41262;DHT22;29629;52.532;13.352;2023-05-10T08:13:02;18.80;99.90
41262;DHT22;29629;52.532;13.352;2023-05-10T08:15:28;18.60;99.90
41262;DHT22;29629;52.532;13.352;2023-05-10T08:17:57;18.80;99.90
41262;DHT22;29629;52.532;13.352;2023-05-10T08:20:24;18.70;99.90
41262;DHT22;29629;52.532;13.352;2023-05-10T08:22:51;18.90;99.90
41262;DHT22;29629;52.532;13.352;2023-05-10T08:25:18;18.80;99.90
41262;DHT22;29629;52.532;13.352;2023-05-10T08:27:45;19.10;99.90
41262;DHT22;29629;52.532;13.352;2023-05-10T08:30:12;19.50;99.90
41262;DHT22;29629;52.532;13.352;2023-05-10T08:32:39;19.40;99.90
41262;DHT22;29629;52.532;13.352;2023-05-10T08:35:07;19.40;99.90
41262;DHT22;29629;52.532;13.352;2023-05-10T08:37:34;19.40;99.90
41262;DHT22;29629;52.532;13.352;2023-05-10T08:40:02;19.60;99.90
41262;DHT22;29629;52.532;13.352;2023-05-10T08:42:30;19.90;99.90
41262;DHT22;29629;52.532;13.352;2023-05-10T08:44:57;20.20;99.90
41262;DHT22;29629;52.532;13.352;2023-05-10T08:47:26;20.30;99.90
41262;DHT22;29629;52.532;13.352;2023-05-10T08:49:53;20.60;99.90
41262;DHT22;29629;52.532;13.352;2023-05-10T08:52:24;20.30;99.90
41262;DHT22;29629;52.532;13.352;2023-05-10T08:54:51;20.50;99.90
41262;DHT22;29629;52.532;13.352;2023-05-10T08:57:19;20.60;99.90
41262;DHT22;29629;52.532;13.352;2023-05-10T08:59:46;21.00;99.90
41262;DHT22;29629;52.532;13.352;2023-05-10T09:02:14;21.20;99.90
41262;DHT22;29629;52.532;13.352;2023-05-10T09:04:41;21.50;99.90
41262;DHT22;29629;52.532;13.352;2023-05-10T09:07:08;21.70;99.90
41262;DHT22;29629;52.532;13.352;2023-05-10T09:09:37;22.00;99.90
41262;DHT22;29629;52.532;13.352;2023-05-10T09:12:04;22.50;99.90
41262;DHT22;29629;52.532;13.352;2023-05-10T09:14:33;22.90;99.90
41262;DHT22;29629;52.532;13.352;2023-05-10T09:17:01;23.50;99.90
41262;DHT22;29629;52.532;13.352;2023-05-10T09:19:28;23.20;99.90
41262;DHT22;29629;52.532;13.352;2023-05-10T09:21:55;23.30;99.90
41262;DHT22;29629;52.532;13.352;2023-05-10T09:24:25;23.90;99.90
41262;DHT22;29629;52.532;13.352;2023-05-10T09:26:57;24.30;99.90
41262;DHT22;29629;52.532;13.352;2023-05-10T09:29:24;24.60;99.90
41262;DHT22;29629;52.532;13.352;2023-05-10T09:31:51;25.10;98.70
41262;DHT22;29629;52.532;13.352;2023-05-10T09:34:22;25.00;98.10
41262;DHT22;29629;52.532;13.352;2023-05-10T09:36:56;25.20;97.60
41262;DHT22;29629;52.532;13.352;2023-05-10T09:39:33;26.60;95.80
41262;DHT22;29629;52.532;13.352;2023-05-10T09:42:04;27.30;94.30
41262;DHT22;29629;52.532;13.352;2023-05-10T09:44:32;28.60;93.80
41262;DHT22;29629;52.532;13.352;2023-05-10T09:46:59;28.80;92.10
41262;DHT22;29629;52.532;13.352;2023-05-10T09:49:26;29.30;91.00
41262;DHT22;29629;52.532;13.352;2023-05-10T09:52:03;28.70;90.60
41262;DHT22;29629;52.532;13.352;2023-05-10T09:54:31;28.30;90.50
41262;DHT22;29629;52.532;13.352;2023-05-10T09:56:58;28.60;90.70
41262;DHT22;29629;52.532;13.352;2023-05-10T09:59:27;28.20;90.80
41262;DHT22;29629;52.532;13.352;2023-05-10T10:01:56;29.30;90.30
41262;DHT22;29629;52.532;13.352;2023-05-10T10:04:23;29.80;88.60
41262;DHT22;29629;52.532;13.352;2023-05-10T10:07:01;29.20;88.50
41262;DHT22;29629;52.532;13.352;2023-05-10T10:09:29;29.80;88.30
41262;DHT22;29629;52.532;13.352;2023-05-10T10:11:56;29.00;87.40
41262;DHT22;29629;52.532;13.352;2023-05-10T10:14:23;29.10;88.30
41262;DHT22;29629;52.532;13.352;2023-05-10T10:16:53;28.80;87.80
41262;DHT22;29629;52.532;13.352;2023-05-10T10:19:21;28.80;87.60
41262;DHT22;29629;52.532;13.352;2023-05-10T10:21:49;28.50;87.60
41262;DHT22;29629;52.532;13.352;2023-05-10T10:24:16;29.40;87.10
41262;DHT22;29629;52.532;13.352;2023-05-10T10:26:44;30.00;85.60
41262;DHT22;29629;52.532;13.352;2023-05-10T10:29:21;29.90;84.70
41262;DHT22;29629;52.532;13.352;2023-05-10T10:31:57;29.30;85.50
41262;DHT22;29629;52.532;13.352;2023-05-10T10:34:29;28.90;85.20
41262;DHT22;29629;52.532;13.352;2023-05-10T10:36:57;28.20;85.50
41262;DHT22;29629;52.532;13.352;2023-05-10T10:39:24;28.30;86.00
41262;DHT22;29629;52.532;13.352;2023-05-10T10:41:53;28.70;85.50
41262;DHT22;29629;52.532;13.352;2023-05-10T10:44:38;28.90;85.10
41262;DHT22;29629;52.532;13.352;2023-05-10T10:47:24;29.10;85.60
41262;DHT22;29629;52.532;13.352;2023-05-10T10:50:03;28.90;84.20
41262;DHT22;29629;52.532;13.352;2023-05-10T10:52:32;28.30;85.60
41262;DHT22;29629;52.532;13.352;2023-05-10T10:55:01;28.60;84.30
41262;DHT22;29629;52.532;13.352;2023-05-10T10:57:32;28.90;84.40
41262;DHT22;29629;52.532;13.352;2023-05-10T11:00:26;27.90;85.50
41262;DHT22;29629;52.532;13.352;2023-05-10T11:02:57;27.90;85.10
41262;DHT22;29629;52.532;13.352;2023-05-10T11:05:40;28.70;83.70
41262;DHT22;29629;52.532;13.352;2023-05-10T11:08:16;29.10;83.20
41262;DHT22;29629;52.532;13.352;2023-05-10T11:10:51;29.40;82.60
41262;DHT22;29629;52.532;13.352;2023-05-10T11:13:27;28.60;82.60
41262;DHT22;29629;52.532;13.352;2023-05-10T11:15:56;28.80;82.40
41262;DHT22;29629;52.532;13.352;2023-05-10T11:18:27;28.30;83.50
41262;DHT22;29629;52.532;13.352;2023-05-10T11:20:57;29.50;82.70
41262;DHT22;29629;52.532;13.352;2023-05-10T11:23:31;29.50;82.30
41262;DHT22;29629;52.532;13.352;2023-05-10T11:25:59;29.30;81.70
41262;DHT22;29629;52.532;13.352;2023-05-10T11:28:26;29.70;81.30
41262;DHT22;29629;52.532;13.352;2023-05-10T11:30:54;29.10;81.00
41262;DHT22;29629;52.532;13.352;2023-05-10T11:33:21;28.60;81.80
41262;DHT22;29629;52.532;13.352;2023-05-10T11:35:49;28.80;82.70
41262;DHT22;29629;52.532;13.352;2023-05-10T11:38:16;28.70;81.70
41262;DHT22;29629;52.532;13.352;2023-05-10T11:40:43;28.70;82.00
41262;DHT22;29629;52.532;13.352;2023-05-10T11:43:10;29.10;80.70
41262;DHT22;29629;52.532;13.352;2023-05-10T11:45:39;29.40;80.40
41262;DHT22;29629;52.532;13.352;2023-05-10T11:48:06;29.90;79.90
41262;DHT22;29629;52.532;13.352;2023-05-10T11:50:33;30.10;79.80
41262;DHT22;29629;52.532;13.352;2023-05-10T11:53:02;30.30;80.60
41262;DHT22;29629;52.532;13.352;2023-05-10T11:55:29;30.40;79.60
41262;DHT22;29629;52.532;13.352;2023-05-10T11:58:01;30.60;79.30
41262;DHT22;29629;52.532;13.352;2023-05-10T12:00:29;29.60;78.50
41262;DHT22;29629;52.532;13.352;2023-05-10T12:02:57;28.60;80.60
41262;DHT22;29629;52.532;13.352;2023-05-10T12:05:24;27.90;82.30
41262;DHT22;29629;52.532;13.352;2023-05-10T12:07:51;29.00;80.50
41262;DHT22;29629;52.532;13.352;2023-05-10T12:10:26;29.30;79.10
41262;DHT22;29629;52.532;13.352;2023-05-10T12:12:53;29.20;79.40
41262;DHT22;29629;52.532;13.352;2023-05-10T12:15:22;29.70;78.50
41262;DHT22;29629;52.532;13.352;2023-05-10T12:17:49;30.20;78.50
41262;DHT22;29629;52.532;13.352;2023-05-10T12:20:17;30.00;77.80
41262;DHT22;29629;52.532;13.352;2023-05-10T12:22:46;29.70;78.00
41262;DHT22;29629;52.532;13.352;2023-05-10T12:25:13;28.90;80.00
41262;DHT22;29629;52.532;13.352;2023-05-10T12:27:44;28.90;80.50
41262;DHT22;29629;52.532;13.352;2023-05-10T12:30:19;29.40;78.30
41262;DHT22;29629;52.532;13.352;2023-05-10T12:32:46;29.30;78.90
41262;DHT22;29629;52.532;13.352;2023-05-10T12:35:12;29.30;78.60
41262;DHT22;29629;52.532;13.352;2023-05-10T12:37:39;29.70;79.70
41262;DHT22;29629;52.532;13.352;2023-05-10T12:40:07;29.30;78.10
41262;DHT22;29629;52.532;13.352;2023-05-10T12:42:35;29.00;78.70
41262;DHT22;29629;52.532;13.352;2023-05-10T12:45:04;29.20;78.50
41262;DHT22;29629;52.532;13.352;2023-05-10T12:47:32;29.30;78.80
41262;DHT22;29629;52.532;13.352;2023-05-10T12:50:00;29.00;79.40
41262;DHT22;29629;52.532;13.352;2023-05-10T12:52:28;28.60;80.20
41262;DHT22;29629;52.532;13.352;2023-05-10T12:54:55;28.50;80.90
41262;DHT22;29629;52.532;13.352;2023-05-10T12:57:22;28.60;81.00
41262;DHT22;29629;52.532;13.352;2023-05-10T12:59:49;28.10;81.30
41262;DHT22;29629;52.532;13.352;2023-05-10T13:02:17;28.20;81.80
41262;DHT22;29629;52.532;13.352;2023-05-10T13:04:45;28.20;81.70
41262;DHT22;29629;52.532;13.352;2023-05-10T13:07:12;28.70;82.40
41262;DHT22;29629;52.532;13.352;2023-05-10T13:09:39;29.00;81.40
41262;DHT22;29629;52.532;13.352;2023-05-10T13:12:06;28.80;79.90
41262;DHT22;29629;52.532;13.352;2023-05-10T13:14:33;27.70;79.70
41262;DHT22;29629;52.532;13.352;2023-05-10T13:17:00;27.10;81.30
41262;DHT22;29629;52.532;13.352;2023-05-10T13:19:28;27.00;83.90
41262;DHT22;29629;52.532;13.352;2023-05-10T13:21:55;27.50;81.10
41262;DHT22;29629;52.532;13.352;2023-05-10T13:24:22;27.50;81.70
41262;DHT22;29629;52.532;13.352;2023-05-10T13:26:49;26.70;82.60
41262;DHT22;29629;52.532;13.352;2023-05-10T13:29:16;26.40;83.80
41262;DHT22;29629;52.532;13.352;2023-05-10T13:31:43;25.70;85.00
41262;DHT22;29629;52.532;13.352;2023-05-10T13:34:10;25.60;85.70
41262;DHT22;29629;52.532;13.352;2023-05-10T13:36:39;25.60;84.70
41262;DHT22;29629;52.532;13.352;2023-05-10T13:39:05;25.90;84.40
41262;DHT22;29629;52.532;13.352;2023-05-10T13:41:32;26.00;84.70
41262;DHT22;29629;52.532;13.352;2023-05-10T13:43:59;26.20;84.20
41262;DHT22;29629;52.532;13.352;2023-05-10T13:46:26;26.00;85.30
41262;DHT22;29629;52.532;13.352;2023-05-10T13:48:53;26.10;83.10
41262;DHT22;29629;52.532;13.352;2023-05-10T13:51:20;25.60;83.90
41262;DHT22;29629;52.532;13.352;2023-05-10T13:53:48;25.30;83.70
41262;DHT22;29629;52.532;13.352;2023-05-10T13:56:15;25.40;83.70
41262;DHT22;29629;52.532;13.352;2023-05-10T13:58:42;25.10;84.80
41262;DHT22;29629;52.532;13.352;2023-05-10T14:01:09;24.90;85.50
41262;DHT22;29629;52.532;13.352;2023-05-10T14:03:37;25.10;85.50
41262;DHT22;29629;52.532;13.352;2023-05-10T14:06:04;25.00;85.40
41262;DHT22;29629;52.532;13.352;2023-05-10T14:08:32;24.80;85.90
41262;DHT22;29629;52.532;13.352;2023-05-10T14:11:01;24.60;84.80
41262;DHT22;29629;52.532;13.352;2023-05-10T14:13:28;24.50;83.90
41262;DHT22;29629;52.532;13.352;2023-05-10T14:15:54;24.50;83.00
41262;DHT22;29629;52.532;13.352;2023-05-10T14:18:21;24.20;82.90
41262;DHT22;29629;52.532;13.352;2023-05-10T14:20:49;23.90;85.00
41262;DHT22;29629;52.532;13.352;2023-05-10T14:23:16;23.70;85.90
41262;DHT22;29629;52.532;13.352;2023-05-10T14:25:42;23.70;86.20
41262;DHT22;29629;52.532;13.352;2023-05-10T14:28:11;23.90;87.50
41262;DHT22;29629;52.532;13.352;2023-05-10T14:30:38;23.90;86.50
41262;DHT22;29629;52.532;13.352;2023-05-10T14:33:05;23.90;85.50
41262;DHT22;29629;52.532;13.352;2023-05-10T14:35:33;24.00;84.60
41262;DHT22;29629;52.532;13.352;2023-05-10T14:38:00;24.00;84.00
41262;DHT22;29629;52.532;13.352;2023-05-10T14:40:27;23.70;85.10
41262;DHT22;29629;52.532;13.352;2023-05-10T14:42:54;23.80;85.10
41262;DHT22;29629;52.532;13.352;2023-05-10T14:45:23;23.80;84.90
41262;DHT22;29629;52.532;13.352;2023-05-10T14:47:50;23.70;84.60
41262;DHT22;29629;52.532;13.352;2023-05-10T14:50:17;23.60;85.60
41262;DHT22;29629;52.532;13.352;2023-05-10T14:52:44;23.40;85.30
41262;DHT22;29629;52.532;13.352;2023-05-10T14:55:11;23.40;85.50
41262;DHT22;29629;52.532;13.352;2023-05-10T14:57:38;23.30;85.50
41262;DHT22;29629;52.532;13.352;2023-05-10T15:00:06;23.30;86.00
41262;DHT22;29629;52.532;13.352;2023-05-10T15:02:34;23.30;86.60
41262;DHT22;29629;52.532;13.352;2023-05-10T15:05:01;23.20;87.30
41262;DHT22;29629;52.532;13.352;2023-05-10T15:07:28;22.90;87.90
41262;DHT22;29629;52.532;13.352;2023-05-10T15:09:56;22.80;88.10
41262;DHT22;29629;52.532;13.352;2023-05-10T15:12:23;22.80;88.90
41262;DHT22;29629;52.532;13.352;2023-05-10T15:14:50;22.80;88.00
41262;DHT22;29629;52.532;13.352;2023-05-10T15:17:17;22.80;88.00
41262;DHT22;29629;52.532;13.352;2023-05-10T15:19:45;22.90;87.60
41262;DHT22;29629;52.532;13.352;2023-05-10T15:22:12;22.90;88.90
41262;DHT22;29629;52.532;13.352;2023-05-10T15:24:39;22.80;88.70